Time;durP1;ratioP1;P1;durP2;ratioP2;P2;SDS_P1;SDS_P2;PMS_P1;PMS_P2;Temp;Humidity;BMP_temperature;BMP_pressure;BME280_temperature;BME280_humidity;BME280_pressure;Samples;Min_cycle;Max_cycle;Signal;HPM_P1;HPM_P2
2021/12/31 00:00:30;;;;;;;7.63;3.45;;;19.60;85.50;;;;;;5089344;28;20035;-31
2021/12/31 00:02:56;;;;;;;9.80;4.25;;;19.60;85.40;;;;;;5089000;28;20055;-31
2021/12/31 00:05:22;;;;;;;8.75;3.35;;;19.60;85.50;;;;;;5105216;28;20387;-31
2021/12/31 00:07:48;;;;;;;9.93;3.70;;;19.60;85.40;;;;;;5101266;28;20070;-31
2021/12/31 00:10:14;;;;;;;8.57;3.78;;;19.60;85.40;;;;;;5102425;28;20024;-32
2021/12/31 00:12:42;;;;;;;7.38;3.60;;;19.60;85.50;;;;;;5103345;28;20740;-31
2021/12/31 00:15:08;;;;;;;10.73;3.53;;;19.50;85.50;;;;;;5096639;28;20055;-32
2021/12/31 00:17:34;;;;;;;6.72;3.20;;;19.50;85.40;;;;;;5091748;28;20088;-32
2021/12/31 00:20:11;;;;;;;7.88;3.33;;;19.50;85.40;;;;;;5082073;28;20534;-31
2021/12/31 00:25:21;;;;;;;7.47;2.90;;;19.40;85.40;;;;;;5089630;28;20180;-32
2021/12/31 00:27:47;;;;;;;6.47;3.10;;;19.40;85.50;;;;;;5107001;28;20016;-31
2021/12/31 00:30:13;;;;;;;8.18;3.17;;;19.40;85.40;;;;;;5097035;28;20031;-32
2021/12/31 00:32:38;;;;;;;7.72;3.22;;;19.40;85.40;;;;;;5088810;28;20020;-32
2021/12/31 00:35:06;;;;;;;7.68;3.13;;;19.40;85.40;;;;;;5099416;28;20024;-31
2021/12/31 00:37:34;;;;;;;6.70;3.17;;;19.40;85.40;;;;;;5088071;28;20107;-35
2021/12/31 00:40:02;;;;;;;8.30;3.10;;;19.40;85.30;;;;;;5099210;28;20973;-42
2021/12/31 00:42:28;;;;;;;7.25;3.53;;;19.40;85.30;;;;;;5066553;28;20040;-39
2021/12/31 00:44:53;;;;;;;7.13;3.22;;;19.40;85.30;;;;;;5078870;28;20128;-40
2021/12/31 00:47:19;;;;;;;7.63;3.35;;;19.30;85.30;;;;;;5107450;28;20031;-40
2021/12/31 00:49:45;;;;;;;7.13;3.03;;;19.30;85.20;;;;;;5095630;28;20501;-40
2021/12/31 00:52:11;;;;;;;8.30;3.40;;;19.30;85.30;;;;;;5100889;28;20035;-38
2021/12/31 00:54:38;;;;;;;5.20;2.97;;;19.30;85.20;;;;;;5085087;28;20473;-40
2021/12/31 00:57:04;;;;;;;7.25;3.20;;;19.30;85.20;;;;;;5103284;28;20056;-41
2021/12/31 00:59:34;;;;;;;8.98;2.60;;;19.30;85.10;;;;;;5098297;28;20083;-38
2021/12/31 01:02:05;;;;;;;6.55;3.10;;;19.30;85.20;;;;;;5093136;28;20024;-41
2021/12/31 01:04:32;;;;;;;6.55;2.70;;;19.30;85.10;;;;;;5092083;28;20473;-41
2021/12/31 01:06:58;;;;;;;6.75;2.50;;;19.30;85.20;;;;;;5094479;28;20090;-42
2021/12/31 01:09:25;;;;;;;7.53;2.85;;;19.20;85.20;;;;;;5089867;28;20012;-40
2021/12/31 01:11:51;;;;;;;8.23;2.90;;;19.20;85.10;;;;;;5094112;28;20043;-41
2021/12/31 01:17:04;;;;;;;8.07;2.85;;;19.20;85.20;;;;;;5068295;28;20031;-41
2021/12/31 01:19:46;;;;;;;6.30;2.50;;;19.20;85.10;;;;;;5074319;28;20081;-41
2021/12/31 01:22:27;;;;;;;5.70;2.53;;;19.20;85.20;;;;;;5088538;28;20456;-38
2021/12/31 01:24:52;;;;;;;5.43;2.33;;;19.10;85.20;;;;;;5106476;28;20534;-41
2021/12/31 01:27:18;;;;;;;4.95;2.50;;;19.10;85.10;;;;;;5098485;28;20020;-39
2021/12/31 01:29:44;;;;;;;7.03;3.00;;;19.10;85.10;;;;;;5079697;28;20547;-39
2021/12/31 01:32:10;;;;;;;5.95;2.60;;;19.10;85.20;;;;;;5102401;28;20104;-38
2021/12/31 01:34:36;;;;;;;5.30;2.60;;;19.10;85.20;;;;;;5092302;28;20059;-37
2021/12/31 01:37:02;;;;;;;6.78;3.00;;;19.10;85.20;;;;;;5107772;28;20020;-40
2021/12/31 01:39:29;;;;;;;4.97;2.50;;;19.10;85.10;;;;;;5111897;28;20485;-39
2021/12/31 01:41:57;;;;;;;7.35;3.25;;;19.10;85.00;;;;;;5099550;28;20453;-38
2021/12/31 01:44:29;;;;;;;4.75;2.22;;;19.10;85.00;;;;;;5080868;28;20094;-40
2021/12/31 01:46:57;;;;;;;5.65;2.17;;;19.10;85.10;;;;;;5101146;28;20038;-41
2021/12/31 01:49:27;;;;;;;6.15;3.17;;;19.10;85.10;;;;;;5091776;28;20390;-40
2021/12/31 01:51:53;;;;;;;5.82;2.88;;;19.10;85.10;;;;;;5100764;28;20019;-40
2021/12/31 01:54:18;;;;;;;5.50;2.58;;;19.00;85.10;;;;;;5110488;28;20432;-39
2021/12/31 01:56:46;;;;;;;6.00;2.65;;;19.10;85.00;;;;;;5109742;28;20040;-40
2021/12/31 01:59:14;;;;;;;6.80;2.90;;;19.10;85.00;;;;;;5089733;28;20038;-39
2021/12/31 02:01:40;;;;;;;4.43;2.15;;;19.10;85.00;;;;;;5097926;28;20048;-40
2021/12/31 02:04:06;;;;;;;4.43;2.03;;;19.00;85.00;;;;;;5096214;28;20443;-40
2021/12/31 02:06:32;;;;;;;5.22;2.70;;;19.00;85.10;;;;;;5095642;28;20023;-41
2021/12/31 02:08:58;;;;;;;4.88;2.38;;;19.00;85.00;;;;;;5098615;28;20036;-42
2021/12/31 02:11:24;;;;;;;6.10;2.53;;;19.00;85.00;;;;;;5078446;28;20028;-43
2021/12/31 02:13:50;;;;;;;5.90;2.40;;;19.00;84.90;;;;;;5101917;28;20091;-39
2021/12/31 02:16:15;;;;;;;6.05;2.58;;;19.00;85.00;;;;;;5092538;28;20028;-42
2021/12/31 02:18:43;;;;;;;5.57;2.67;;;18.90;85.00;;;;;;5099547;28;20385;-40
2021/12/31 02:21:12;;;;;;;6.10;2.65;;;18.90;85.00;;;;;;5110140;28;20020;-42
2021/12/31 02:23:44;;;;;;;5.18;2.35;;;19.00;85.00;;;;;;5105602;28;20028;-41
2021/12/31 02:26:11;;;;;;;6.47;2.90;;;18.90;84.90;;;;;;5070566;28;20035;-41
2021/12/31 02:28:36;;;;;;;5.22;2.53;;;19.00;84.90;;;;;;5098198;28;20088;-40
2021/12/31 02:31:03;;;;;;;4.63;2.20;;;18.90;84.90;;;;;;5108720;28;20050;-41
2021/12/31 02:33:30;;;;;;;3.92;2.40;;;18.90;84.80;;;;;;5103062;28;20028;-39
2021/12/31 02:35:56;;;;;;;5.07;2.45;;;19.00;84.90;;;;;;5090013;28;20081;-41
2021/12/31 02:38:22;;;;;;;4.72;2.03;;;18.90;84.90;;;;;;5101572;28;20031;-38
2021/12/31 02:40:48;;;;;;;5.65;2.17;;;18.90;84.90;;;;;;5098837;28;20099;-42
2021/12/31 02:43:14;;;;;;;5.80;2.58;;;18.90;84.70;;;;;;5098726;28;20105;-41
2021/12/31 02:45:41;;;;;;;5.78;2.58;;;18.90;84.70;;;;;;5093949;28;20474;-40
2021/12/31 02:48:07;;;;;;;4.43;2.40;;;18.90;84.70;;;;;;5096125;28;20527;-41
2021/12/31 02:50:35;;;;;;;4.68;2.28;;;18.90;84.80;;;;;;5096383;28;20020;-38
2021/12/31 02:53:07;;;;;;;4.88;2.10;;;18.80;84.70;;;;;;5093548;28;20047;-38
2021/12/31 02:55:35;;;;;;;5.03;2.25;;;18.90;84.70;;;;;;5087717;28;20548;-40
2021/12/31 02:58:03;;;;;;;4.53;2.08;;;18.90;84.60;;;;;;5078347;28;20586;-40
2021/12/31 03:00:29;;;;;;;4.57;2.17;;;18.90;84.70;;;;;;5099931;28;20020;-41
2021/12/31 03:02:56;;;;;;;4.72;2.15;;;18.90;84.80;;;;;;5079356;28;20050;-40
2021/12/31 03:05:23;;;;;;;4.75;2.40;;;18.80;84.70;;;;;;5097466;28;20048;-34
2021/12/31 03:07:49;;;;;;;3.83;2.10;;;18.80;84.70;;;;;;5108485;27;20354;-37
2021/12/31 03:10:15;;;;;;;4.30;1.92;;;18.90;85.40;;;;;;5098014;27;20487;-41
2021/12/31 03:12:42;;;;;;;3.97;1.80;;;18.90;84.80;;;;;;5109833;28;20112;-41
2021/12/31 03:15:09;;;;;;;4.45;2.35;;;18.90;84.80;;;;;;5102331;28;20738;-42
2021/12/31 03:17:35;;;;;;;4.63;2.25;;;18.80;84.40;;;;;;5089704;28;20312;-40
2021/12/31 03:20:12;;;;;;;4.45;2.15;;;18.80;84.50;;;;;;5095121;28;20095;-39
2021/12/31 03:22:39;;;;;;;5.45;2.47;;;18.80;84.50;;;;;;5109791;28;20157;-40
2021/12/31 03:25:06;;;;;;;5.18;2.25;;;18.80;84.60;;;;;;5104874;28;20092;-41
2021/12/31 03:27:32;;;;;;;5.93;2.13;;;18.80;84.70;;;;;;5069311;28;20070;-31
2021/12/31 03:29:58;;;;;;;4.22;1.67;;;18.80;84.60;;;;;;5093012;28;20020;-32
2021/12/31 03:32:23;;;;;;;4.82;2.00;;;18.80;84.70;;;;;;5091775;28;20016;-31
2021/12/31 03:34:49;;;;;;;4.90;2.05;;;18.80;84.60;;;;;;5096579;28;20018;-32
2021/12/31 03:37:14;;;;;;;4.80;1.92;;;18.80;84.70;;;;;;5094368;28;20846;-31
2021/12/31 03:39:40;;;;;;;4.45;2.25;;;18.80;84.60;;;;;;5088218;28;20023;-31
2021/12/31 03:42:06;;;;;;;3.90;1.77;;;18.80;84.60;;;;;;5097011;28;20020;-32
2021/12/31 03:44:31;;;;;;;4.28;2.10;;;18.80;84.50;;;;;;5091513;28;20032;-32
2021/12/31 03:46:58;;;;;;;5.13;1.95;;;18.80;84.40;;;;;;5099586;28;20059;-41
2021/12/31 03:49:23;;;;;;;3.42;1.92;;;18.80;84.40;;;;;;5090016;28;20015;-41
2021/12/31 03:51:49;;;;;;;4.90;2.33;;;18.80;84.50;;;;;;5091631;28;20363;-40
2021/12/31 03:54:14;;;;;;;4.63;2.03;;;18.80;84.30;;;;;;5089976;28;20024;-41
2021/12/31 03:56:40;;;;;;;4.55;1.98;;;18.80;84.40;;;;;;5097809;28;20055;-38
2021/12/31 03:59:06;;;;;;;4.05;1.80;;;18.80;84.50;;;;;;5109300;28;20113;-39
2021/12/31 04:01:31;;;;;;;4.65;2.13;;;18.70;84.40;;;;;;5103169;28;20035;-38
2021/12/31 04:03:57;;;;;;;5.32;2.15;;;18.70;84.40;;;;;;5089727;28;20028;-37
2021/12/31 04:06:23;;;;;;;4.43;1.85;;;18.70;84.30;;;;;;5099478;28;20534;-40
2021/12/31 04:08:50;;;;;;;4.18;1.83;;;18.70;84.30;;;;;;5090009;28;20020;-38
2021/12/31 04:11:16;;;;;;;4.75;1.80;;;18.70;84.40;;;;;;5099463;28;20028;-39
2021/12/31 04:13:42;;;;;;;4.90;2.00;;;18.70;84.40;;;;;;5092843;28;20435;-35
2021/12/31 04:16:08;;;;;;;4.40;1.95;;;18.70;84.30;;;;;;5095548;28;20030;-39
2021/12/31 04:18:33;;;;;;;4.80;1.90;;;18.70;84.30;;;;;;5094815;28;20049;-39
2021/12/31 04:21:00;;;;;;;3.92;1.77;;;18.70;84.30;;;;;;5090377;28;20039;-43
2021/12/31 04:23:32;;;;;;;4.22;1.70;;;18.70;84.50;;;;;;5101124;28;20107;-38
2021/12/31 04:25:59;;;;;;;3.05;1.60;;;18.70;84.40;;;;;;5107294;28;20024;-39
2021/12/31 04:28:26;;;;;;;4.70;1.75;;;18.70;84.30;;;;;;5099833;28;20062;-39
2021/12/31 04:30:52;;;;;;;2.83;1.60;;;18.70;84.40;;;;;;5108392;27;20152;-40
2021/12/31 04:33:17;;;;;;;3.80;1.88;;;18.70;84.30;;;;;;5098504;28;20035;-40
2021/12/31 04:35:43;;;;;;;3.55;1.73;;;18.70;84.30;;;;;;5103692;28;20125;-39
2021/12/31 04:38:09;;;;;;;3.72;1.60;;;18.70;84.30;;;;;;5100416;28;20419;-39
2021/12/31 04:40:34;;;;;;;4.38;1.80;;;18.60;84.30;;;;;;5089680;28;20017;-41
2021/12/31 04:43:00;;;;;;;2.90;1.40;;;18.70;84.30;;;;;;5101339;28;20059;-36
2021/12/31 04:45:25;;;;;;;5.13;2.00;;;18.60;84.30;;;;;;5088506;28;20028;-42
2021/12/31 04:47:51;;;;;;;3.65;1.52;;;18.70;84.30;;;;;;5092974;28;20046;-42
2021/12/31 04:50:17;;;;;;;3.55;1.70;;;18.70;84.20;;;;;;5070384;28;20024;-39
2021/12/31 04:52:43;;;;;;;5.05;1.85;;;18.70;84.30;;;;;;5093454;28;20477;-41
2021/12/31 04:55:10;;;;;;;3.03;1.42;;;18.70;84.10;;;;;;5091830;28;20035;-42
2021/12/31 04:57:35;;;;;;;2.83;1.48;;;18.70;84.20;;;;;;5096712;28;20465;-39
2021/12/31 05:00:01;;;;;;;4.15;1.67;;;18.70;84.20;;;;;;5093960;28;20048;-42
2021/12/31 05:02:26;;;;;;;3.00;1.90;;;18.60;84.00;;;;;;5095559;28;20094;-38
2021/12/31 05:04:52;;;;;;;5.30;1.80;;;18.70;84.00;;;;;;5106620;28;20501;-42
2021/12/31 05:07:17;;;;;;;4.13;2.10;;;18.70;84.00;;;;;;5095055;28;20035;-42
2021/12/31 05:09:43;;;;;;;3.95;1.73;;;18.70;84.10;;;;;;5103310;28;20027;-40
2021/12/31 05:12:14;;;;;;;2.97;1.70;;;18.60;84.00;;;;;;5094038;28;20024;-38
2021/12/31 05:14:40;;;;;;;4.22;2.05;;;18.60;84.20;;;;;;5101001;28;20095;-38
2021/12/31 05:17:06;;;;;;;3.33;1.58;;;18.60;84.20;;;;;;5111652;28;20019;-39
2021/12/31 05:19:31;;;;;;;3.25;1.50;;;18.60;84.20;;;;;;5095324;28;20021;-38
2021/12/31 05:21:57;;;;;;;3.97;1.80;;;18.60;84.10;;;;;;5072305;28;20612;-41
2021/12/31 05:24:22;;;;;;;2.72;1.50;;;18.60;84.10;;;;;;5104799;28;20504;-35
2021/12/31 05:26:48;;;;;;;2.85;1.50;;;18.60;84.20;;;;;;5092758;28;20021;-40
2021/12/31 05:29:14;;;;;;;4.85;1.58;;;18.60;84.30;;;;;;5105020;28;20027;-44
2021/12/31 05:31:39;;;;;;;4.22;1.70;;;18.60;84.50;;;;;;5091714;28;20074;-39
2021/12/31 05:34:04;;;;;;;3.28;1.80;;;18.60;84.50;;;;;;5102357;28;20070;-38
2021/12/31 05:36:30;;;;;;;4.63;1.73;;;18.60;84.50;;;;;;5095598;28;20385;-36
2021/12/31 05:38:56;;;;;;;3.53;1.70;;;18.60;84.50;;;;;;5095621;28;20540;-41
2021/12/31 05:41:21;;;;;;;3.55;1.55;;;18.60;84.60;;;;;;5105935;28;20097;-38
2021/12/31 05:43:47;;;;;;;4.90;1.80;;;18.60;84.50;;;;;;5106131;28;20042;-39
2021/12/31 05:46:12;;;;;;;3.42;1.40;;;18.60;84.50;;;;;;5095026;28;20027;-38
2021/12/31 05:48:38;;;;;;;3.58;1.25;;;18.60;84.40;;;;;;5087530;28;20473;-36
2021/12/31 05:51:03;;;;;;;4.20;1.80;;;18.60;84.30;;;;;;5092205;28;20386;-38
2021/12/31 05:53:30;;;;;;;5.85;1.90;;;18.60;84.30;;;;;;5081196;28;20019;-41
2021/12/31 05:55:55;;;;;;;2.80;1.50;;;18.60;84.50;;;;;;5103362;28;20020;-39
2021/12/31 05:58:21;;;;;;;4.22;1.40;;;18.50;84.40;;;;;;5091741;28;20030;-41
2021/12/31 06:00:46;;;;;;;4.68;2.10;;;18.60;84.30;;;;;;5095041;28;20019;-38
2021/12/31 06:03:12;;;;;;;3.92;2.05;;;18.50;84.30;;;;;;5073251;28;20548;-40
2021/12/31 06:05:37;;;;;;;4.78;1.83;;;18.30;82.10;;;;;;5098884;28;20023;-39
2021/12/31 06:08:04;;;;;;;3.10;1.70;;;18.30;84.60;;;;;;5111870;28;20488;-38
2021/12/31 06:10:31;;;;;;;5.60;1.80;;;18.40;84.40;;;;;;5100451;27;20032;-37
2021/12/31 06:12:59;;;;;;;3.78;1.75;;;18.50;84.20;;;;;;5111548;28;20031;-40
2021/12/31 06:15:27;;;;;;;2.80;1.52;;;18.50;83.80;;;;;;5107404;28;20051;-40
2021/12/31 06:17:52;;;;;;;4.28;1.70;;;18.50;84.00;;;;;;5088976;28;20028;-39
2021/12/31 06:20:18;;;;;;;4.90;2.03;;;18.50;83.90;;;;;;5080489;28;20028;-40
2021/12/31 06:22:44;;;;;;;3.92;1.80;;;18.50;84.10;;;;;;5090441;28;20148;-39
2021/12/31 06:25:10;;;;;;;6.32;1.98;;;18.50;84.30;;;;;;5095532;28;20386;-35
2021/12/31 06:27:35;;;;;;;6.55;2.08;;;18.50;84.10;;;;;;5098989;28;20020;-40
2021/12/31 06:30:04;;;;;;;5.15;1.88;;;18.50;84.00;;;;;;5084029;28;20035;-38
2021/12/31 06:32:30;;;;;;;7.32;2.35;;;18.60;83.70;;;;;;5096336;28;20092;-39
2021/12/31 06:34:55;;;;;;;8.15;1.85;;;18.50;84.00;;;;;;5075488;28;20523;-39
2021/12/31 06:37:21;;;;;;;9.23;1.75;;;18.50;83.90;;;;;;5094453;28;20381;-42
2021/12/31 06:39:47;;;;;;;6.13;1.70;;;18.50;84.20;;;;;;5090454;28;20027;-41
2021/12/31 06:42:13;;;;;;;6.25;1.70;;;18.50;84.20;;;;;;5101086;28;20024;-43
2021/12/31 06:44:39;;;;;;;4.00;1.42;;;18.60;84.00;;;;;;5078990;28;20036;-38
2021/12/31 06:47:06;;;;;;;3.45;1.30;;;18.60;84.00;;;;;;5094811;28;20505;-40
2021/12/31 06:49:31;;;;;;;5.38;1.60;;;18.50;83.90;;;;;;5109258;28;20032;-38
2021/12/31 06:51:57;;;;;;;6.40;2.40;;;18.50;84.10;;;;;;5102696;28;20024;-38
2021/12/31 06:54:23;;;;;;;5.90;1.80;;;18.50;84.10;;;;;;5109210;28;20031;-38
2021/12/31 06:56:48;;;;;;;4.43;1.50;;;18.50;84.10;;;;;;5104288;28;20043;-40
2021/12/31 06:59:14;;;;;;;5.00;1.55;;;18.50;84.20;;;;;;5092049;28;20035;-38
2021/12/31 07:01:40;;;;;;;4.30;1.40;;;18.50;84.40;;;;;;5093130;28;20051;-41
2021/12/31 07:04:05;;;;;;;5.63;1.75;;;18.50;84.30;;;;;;5080812;28;20043;-38
2021/12/31 07:06:31;;;;;;;3.55;1.30;;;18.50;84.30;;;;;;5078194;28;20110;-37
2021/12/31 07:08:56;;;;;;;6.55;1.65;;;18.50;84.50;;;;;;5077887;28;20042;-41
2021/12/31 07:11:22;;;;;;;7.50;1.40;;;18.40;84.60;;;;;;5083034;28;20024;-39
2021/12/31 07:13:49;;;;;;;3.85;1.65;;;18.50;84.40;;;;;;5084657;28;20143;-40
2021/12/31 07:16:14;;;;;;;5.18;1.85;;;18.40;84.50;;;;;;5078638;28;20034;-38
2021/12/31 07:18:40;;;;;;;4.65;1.70;;;18.50;84.60;;;;;;5080685;28;20024;-40
2021/12/31 07:21:05;;;;;;;3.20;1.23;;;18.40;84.60;;;;;;5077915;28;20028;-41
2021/12/31 07:23:31;;;;;;;3.58;1.52;;;18.40;84.50;;;;;;5082983;28;20541;-40
2021/12/31 07:25:56;;;;;;;7.25;2.20;;;18.40;84.60;;;;;;5074332;28;20517;-41
2021/12/31 07:28:22;;;;;;;6.88;1.95;;;18.50;84.80;;;;;;5093708;28;20028;-40
2021/12/31 07:30:48;;;;;;;9.80;1.75;;;18.50;84.50;;;;;;5109148;28;20020;-40
2021/12/31 07:33:19;;;;;;;5.60;1.50;;;18.50;84.20;;;;;;5103233;28;20030;-36
2021/12/31 07:35:45;;;;;;;3.45;1.30;;;18.60;84.40;;;;;;5082221;28;20028;-40
2021/12/31 07:38:19;;;;;;;6.10;1.92;;;18.60;84.60;;;;;;5091919;28;20474;-41
2021/12/31 07:40:45;;;;;;;7.13;1.52;;;18.60;84.80;;;;;;5084533;28;20666;-36
2021/12/31 07:43:12;;;;;;;4.68;1.42;;;18.60;84.80;;;;;;5089222;28;20031;-41
2021/12/31 07:45:38;;;;;;;5.70;2.55;;;18.60;85.20;;;;;;5092204;28;20020;-40
2021/12/31 07:48:05;;;;;;;5.72;1.60;;;18.60;85.80;;;;;;5092164;28;20019;-38
2021/12/31 07:50:31;;;;;;;5.38;1.48;;;18.60;85.90;;;;;;5094533;28;20020;-35
2021/12/31 07:52:57;;;;;;;5.15;1.75;;;18.40;86.00;;;;;;5085222;28;20028;-38
2021/12/31 07:55:23;;;;;;;4.63;1.45;;;18.50;86.50;;;;;;5105658;28;20070;-38
2021/12/31 07:57:48;;;;;;;5.47;1.98;;;18.50;86.10;;;;;;5080344;28;20554;-38
2021/12/31 08:00:14;;;;;;;3.88;1.58;;;18.50;85.90;;;;;;5096253;28;20024;-40
2021/12/31 08:02:40;;;;;;;7.80;1.45;;;18.50;85.80;;;;;;5091187;27;20016;-38
2021/12/31 08:05:06;;;;;;;3.78;1.20;;;18.50;85.90;;;;;;5095864;28;20042;-38
2021/12/31 08:07:32;;;;;;;7.03;2.25;;;18.50;86.20;;;;;;5106722;28;20059;-38
2021/12/31 08:09:58;;;;;;;3.60;1.60;;;18.50;85.80;;;;;;5095183;28;20081;-39
2021/12/31 08:12:23;;;;;;;8.43;2.15;;;18.50;85.70;;;;;;5107802;28;20016;-40
2021/12/31 08:14:49;;;;;;;4.88;1.40;;;18.50;85.40;;;;;;5094421;28;20036;-38
2021/12/31 08:17:15;;;;;;;5.28;2.05;;;18.50;85.20;;;;;;5107653;28;20532;-38
2021/12/31 08:19:41;;;;;;;4.55;1.38;;;18.50;85.30;;;;;;5096572;28;20054;-38
2021/12/31 08:22:07;;;;;;;4.03;1.42;;;18.60;85.30;;;;;;5106043;28;20028;-40
2021/12/31 08:24:33;;;;;;;3.22;1.40;;;18.60;85.20;;;;;;5098667;28;20088;-41
2021/12/31 08:26:58;;;;;;;5.68;1.48;;;18.50;85.20;;;;;;5091965;28;20024;-41
2021/12/31 08:29:24;;;;;;;2.60;1.40;;;18.50;85.40;;;;;;5091046;28;20016;-39
2021/12/31 08:31:49;;;;;;;5.28;1.60;;;18.50;85.20;;;;;;5087134;28;20032;-39
2021/12/31 08:34:15;;;;;;;6.85;2.25;;;18.50;85.50;;;;;;5089433;28;20032;-39
2021/12/31 08:36:40;;;;;;;2.70;1.25;;;18.50;85.70;;;;;;5096951;28;20028;-39
2021/12/31 08:39:07;;;;;;;4.15;1.38;;;18.50;85.90;;;;;;5093677;28;20012;-39
2021/12/31 08:41:34;;;;;;;3.38;1.52;;;18.50;85.80;;;;;;5095195;28;20038;-39
2021/12/31 08:43:59;;;;;;;4.18;1.70;;;18.50;85.90;;;;;;5079155;28;20040;-42
2021/12/31 08:46:26;;;;;;;4.43;1.48;;;18.50;85.90;;;;;;5085710;28;20042;-41
2021/12/31 08:48:52;;;;;;;4.13;1.30;;;18.50;85.90;;;;;;5083113;28;20020;-42
2021/12/31 08:51:18;;;;;;;3.25;1.13;;;18.50;85.80;;;;;;5101685;28;20043;-42
2021/12/31 08:53:43;;;;;;;3.60;1.50;;;18.50;86.10;;;;;;5088156;28;20535;-42
2021/12/31 08:56:09;;;;;;;10.02;1.55;;;18.50;86.10;;;;;;5101877;28;20020;-41
2021/12/31 08:58:34;;;;;;;5.18;1.55;;;18.60;85.90;;;;;;5111923;28;20114;-42
2021/12/31 09:01:00;;;;;;;3.42;1.38;;;18.60;86.20;;;;;;5094301;28;20115;-40
2021/12/31 09:03:25;;;;;;;7.03;2.00;;;18.60;86.20;;;;;;5108557;28;20435;-40
2021/12/31 09:05:51;;;;;;;4.43;1.92;;;18.50;86.20;;;;;;5105296;28;20020;-41
2021/12/31 09:08:16;;;;;;;8.15;1.50;;;18.50;86.20;;;;;;5094359;28;20028;-42
2021/12/31 09:10:42;;;;;;;3.70;1.60;;;18.40;86.80;;;;;;5092796;28;20081;-43
2021/12/31 09:13:08;;;;;;;7.32;1.40;;;18.40;86.60;;;;;;5101316;28;20039;-43
2021/12/31 09:15:34;;;;;;;4.75;1.63;;;18.50;86.50;;;;;;5108742;28;20493;-42
2021/12/31 09:17:59;;;;;;;6.25;1.38;;;18.50;86.40;;;;;;5101604;28;20089;-38
2021/12/31 09:20:26;;;;;;;5.13;1.50;;;18.60;86.70;;;;;;5087121;28;20035;-42
2021/12/31 09:22:52;;;;;;;7.68;1.75;;;18.60;86.30;;;;;;5098243;28;20073;-41
2021/12/31 09:25:18;;;;;;;5.38;1.80;;;18.70;86.40;;;;;;5110460;28;20438;-40
2021/12/31 09:27:44;;;;;;;11.95;3.13;;;18.70;85.90;;;;;;5098354;28;20058;-42
2021/12/31 09:30:10;;;;;;;7.60;2.40;;;18.70;85.50;;;;;;5110105;28;20119;-36
2021/12/31 09:32:36;;;;;;;5.07;2.10;;;18.80;85.50;;;;;;5101649;28;20495;-38
2021/12/31 09:35:02;;;;;;;5.50;1.77;;;18.80;85.20;;;;;;5090719;28;20124;-38
2021/12/31 09:37:32;;;;;;;10.52;2.13;;;18.80;84.90;;;;;;5092347;28;20021;-40
2021/12/31 09:40:06;;;;;;;10.73;2.20;;;18.80;85.20;;;;;;5082004;28;20370;-41
2021/12/31 09:42:33;;;;;;;6.93;2.20;;;18.80;86.00;;;;;;5089348;28;20461;-40
2021/12/31 09:45:14;;;;;;;11.35;2.67;;;18.80;85.90;;;;;;5107303;28;20080;-41
2021/12/31 09:48:03;;;;;;;10.48;3.42;;;18.90;86.60;;;;;;5096393;28;20424;-40
2021/12/31 09:53:52;;;;;;;8.50;1.98;;;18.90;86.50;;;;;;5094048;28;20028;-42
2021/12/31 09:56:18;;;;;;;8.18;1.90;;;18.90;87.20;;;;;;5083509;28;20067;-40
2021/12/31 09:58:43;;;;;;;9.80;2.42;;;18.90;87.00;;;;;;5101826;28;20016;-39
2021/12/31 10:01:09;;;;;;;8.57;2.35;;;19.00;86.30;;;;;;5078961;28;20028;-41
2021/12/31 10:03:37;;;;;;;6.25;2.63;;;19.00;86.20;;;;;;5104756;28;20041;-41
2021/12/31 10:06:13;;;;;;;17.63;2.85;;;19.10;86.30;;;;;;5109784;28;20110;-40
2021/12/31 10:08:45;;;;;;;10.00;2.13;;;19.10;86.50;;;;;;5096315;28;20047;-41
2021/12/31 10:11:17;;;;;;;8.55;2.38;;;19.10;86.30;;;;;;5109448;28;20818;-41
2021/12/31 10:13:56;;;;;;;12.68;2.63;;;19.10;86.40;;;;;;5097453;28;20024;-40
2021/12/31 10:16:25;;;;;;;9.40;2.30;;;19.10;86.50;;;;;;5092416;28;20032;-41
2021/12/31 10:19:04;;;;;;;9.13;2.15;;;19.10;85.90;;;;;;5098952;28;20073;-41
2021/12/31 10:21:56;;;;;;;11.27;2.20;;;19.10;85.80;;;;;;5097789;28;20243;-40
2021/12/31 10:24:22;;;;;;;11.13;2.67;;;19.10;85.60;;;;;;5073009;28;20047;-41
2021/12/31 10:26:48;;;;;;;6.88;2.10;;;19.20;85.40;;;;;;5077191;28;20565;-41
2021/12/31 10:29:15;;;;;;;5.97;2.25;;;19.30;85.20;;;;;;5077214;28;20032;-39
2021/12/31 10:31:52;;;;;;;7.60;2.13;;;19.30;85.30;;;;;;5076693;28;21383;-39
2021/12/31 10:34:45;;;;;;;10.18;2.55;;;19.30;85.20;;;;;;5073493;28;20620;-38
2021/12/31 10:37:26;;;;;;;7.63;1.85;;;19.30;84.90;;;;;;5070613;28;20490;-40
2021/12/31 10:40:01;;;;;;;9.75;2.22;;;19.40;85.00;;;;;;5073744;28;20029;-41
2021/12/31 10:42:32;;;;;;;13.93;2.65;;;19.40;84.90;;;;;;5075553;28;20055;-40
2021/12/31 10:45:00;;;;;;;7.40;1.95;;;19.40;84.90;;;;;;5073287;28;20040;-38
2021/12/31 10:47:38;;;;;;;7.43;2.33;;;19.40;85.00;;;;;;5074007;28;20439;-39
2021/12/31 10:50:03;;;;;;;9.10;2.08;;;19.50;84.70;;;;;;5078734;28;20032;-41
2021/12/31 10:52:52;;;;;;;5.22;2.10;;;19.40;84.90;;;;;;5073853;28;20036;-39
2021/12/31 10:55:24;;;;;;;8.98;1.90;;;19.50;84.30;;;;;;5076322;28;20513;-37
2021/12/31 10:57:52;;;;;;;8.07;2.20;;;19.50;84.10;;;;;;5077477;28;20474;-44
2021/12/31 11:00:19;;;;;;;6.75;2.35;;;18.30;75.70;;;;;;5076141;28;20035;-41
2021/12/31 11:02:46;;;;;;;7.95;2.80;;;17.60;77.00;;;;;;5076906;28;20048;-40
2021/12/31 11:05:18;;;;;;;8.25;2.60;;;17.30;77.00;;;;;;5076029;28;20141;-36
2021/12/31 11:07:46;;;;;;;9.15;2.88;;;17.00;76.80;;;;;;5071584;28;20048;-39
2021/12/31 11:10:12;;;;;;;5.85;2.55;;;17.00;77.50;;;;;;5077689;28;20332;-41
2021/12/31 11:12:38;;;;;;;5.57;2.08;;;16.90;77.00;;;;;;5076413;28;20039;-39
2021/12/31 11:15:05;;;;;;;6.30;2.13;;;17.00;76.90;;;;;;5078854;28;20048;-39
2021/12/31 11:17:31;;;;;;;4.38;2.10;;;16.80;77.10;;;;;;5071286;28;20032;-39
2021/12/31 11:19:57;;;;;;;5.50;1.92;;;16.70;77.20;;;;;;5075121;28;20571;-36
2021/12/31 11:22:29;;;;;;;4.95;1.95;;;16.70;77.30;;;;;;5076552;28;20165;-36
2021/12/31 11:25:18;;;;;;;5.75;2.10;;;16.60;77.60;;;;;;5073638;28;20129;-36
2021/12/31 11:27:47;;;;;;;4.53;2.10;;;16.80;76.90;;;;;;5074885;28;20455;-35
2021/12/31 11:30:27;;;;;;;4.95;2.28;;;16.60;76.80;;;;;;5077894;28;20032;-41
2021/12/31 11:32:59;;;;;;;;;;;16.50;77.50;;;;;;5073143;28;20028;-39
2021/12/31 11:35:56;;;;;;;8.75;2.38;;;16.30;78.00;;;;;;5073161;28;20581;-39
2021/12/31 11:38:21;;;;;;;4.57;2.10;;;16.30;78.40;;;;;;5073257;28;20024;-38
2021/12/31 11:40:51;;;;;;;12.98;2.92;;;16.40;78.10;;;;;;5077543;28;20470;-37
2021/12/31 11:43:27;;;;;;;5.80;2.75;;;16.40;78.10;;;;;;5072395;28;20459;-40
2021/12/31 11:46:19;;;;;;;7.03;2.75;;;16.50;77.60;;;;;;5078365;28;20027;-39
2021/12/31 11:51:12;;;;;;;5.68;2.78;;;16.60;77.80;;;;;;5077603;28;20032;-39
2021/12/31 11:53:56;;;;;;;6.05;2.25;;;16.70;77.40;;;;;;5073149;28;20034;-39
2021/12/31 11:56:36;;;;;;;6.63;2.53;;;16.70;77.00;;;;;;5078390;28;20048;-40
2021/12/31 11:59:08;;;;;;;8.18;2.95;;;16.60;76.90;;;;;;5075003;28;20204;-36
2021/12/31 12:01:36;;;;;;;9.38;2.28;;;16.60;77.50;;;;;;5072301;28;20124;-38
2021/12/31 12:04:22;;;;;;;7.78;3.13;;;16.50;77.70;;;;;;5068829;28;20113;-38
2021/12/31 12:07:02;;;;;;;7.15;3.33;;;16.60;77.60;;;;;;5074203;28;20100;-41
2021/12/31 12:09:37;;;;;;;8.63;3.55;;;16.50;77.90;;;;;;5075388;28;20436;-40
2021/12/31 12:12:13;;;;;;;8.13;3.63;;;16.40;78.70;;;;;;5075621;28;20138;-38
2021/12/31 12:14:45;;;;;;;9.57;4.28;;;16.40;78.60;;;;;;5071644;28;20024;-38
2021/12/31 12:17:16;;;;;;;8.35;3.90;;;16.30;79.40;;;;;;5072984;28;20036;-34
2021/12/31 12:19:50;;;;;;;6.72;3.00;;;16.30;79.80;;;;;;5076788;28;20026;-39
2021/12/31 12:22:39;;;;;;;9.90;3.45;;;16.20;80.60;;;;;;5074499;28;20028;-38
2021/12/31 12:25:10;;;;;;;8.15;3.15;;;16.30;80.50;;;;;;5072800;28;20036;-37
2021/12/31 12:27:37;;;;;;;;;;;16.40;80.30;;;;;;5074440;28;20055;-39
2021/12/31 12:30:06;;;;;;;11.32;5.18;;;16.40;80.20;;;;;;5076269;28;19908;-33
2021/12/31 12:35:21;;;;;;;10.93;6.10;;;16.40;80.40;;;;;;5074398;28;20028;-38
2021/12/31 12:38:00;;;;;;;12.00;5.30;;;16.40;80.20;;;;;;5076528;28;20028;-40
2021/12/31 12:40:52;;;;;;;11.13;5.22;;;16.40;80.30;;;;;;5077128;28;20521;-40
2021/12/31 12:43:22;;;;;;;11.45;4.90;;;16.50;80.00;;;;;;5074267;28;20494;-37
2021/12/31 12:45:54;;;;;;;9.07;4.55;;;16.50;79.90;;;;;;5070795;28;20059;-38
2021/12/31 12:48:38;;;;;;;13.73;5.00;;;16.60;79.50;;;;;;5074433;28;20473;-38
2021/12/31 12:51:06;;;;;;;11.00;3.53;;;16.60;79.10;;;;;;5071243;28;20039;-38
2021/12/31 12:53:37;;;;;;;10.38;3.33;;;16.50;79.50;;;;;;5074265;28;20016;-36
2021/12/31 12:56:22;;;;;;;7.45;3.88;;;16.40;79.80;;;;;;5073788;28;20025;-38
2021/12/31 12:58:52;;;;;;;7.72;4.07;;;16.50;80.00;;;;;;5074828;28;20036;-38
2021/12/31 13:01:33;;;;;;;7.15;3.72;;;16.50;80.00;;;;;;5071860;28;20031;-38
2021/12/31 13:03:59;;;;;;;8.82;3.50;;;16.60;79.70;;;;;;5074848;28;20043;-36